Time;durP1;ratioP1;P1;durP2;ratioP2;P2;SDS_P1;SDS_P2;PMS_P1;PMS_P2;Temp;Humidity;BMP_temperature;BMP_pressure;BME280_temperature;BME280_humidity;BME280_pressure;Samples;Min_cycle;Max_cycle;Signal;HPM_P1;HPM_P2
2022/09/09 00:02:00;;;;;;;3.15;1.95;;;16.10;99.90;;;;;;5049943;28;20756;-59
2022/09/09 00:04:27;;;;;;;1.98;1.58;;;16.20;99.90;;;;;;5050580;28;20182;-59
2022/09/09 00:07:21;;;;;;;3.38;2.13;;;15.90;99.90;;;;;;5050351;28;20207;-59
2022/09/09 00:10:07;;;;;;;1.30;1.20;;;16.10;99.90;;;;;;5047371;28;20231;-59
2022/09/09 00:12:55;;;;;;;1.70;1.40;;;15.60;99.90;;;;;;5036115;28;20208;-59
2022/09/09 00:15:25;;;;;;;1.83;1.33;;;16.00;99.90;;;;;;5044847;28;20181;-59
2022/09/09 00:18:00;;;;;;;1.92;1.55;;;15.80;99.90;;;;;;5047717;28;20205;-59
2022/09/09 00:20:34;;;;;;;2.63;1.52;;;15.90;99.90;;;;;;5048027;28;20618;-59
2022/09/09 00:23:06;;;;;;;3.63;2.45;;;15.70;99.90;;;;;;5050545;28;20253;-60
2022/09/09 00:25:45;;;;;;;1.98;1.35;;;15.90;99.90;;;;;;5048989;28;20192;-59
2022/09/09 00:28:22;;;;;;;2.42;1.40;;;15.90;99.90;;;;;;5021699;28;20566;-60
2022/09/09 00:30:48;;;;;;;4.07;1.60;;;15.80;99.90;;;;;;5049265;28;20205;-60
2022/09/09 00:33:15;;;;;;;1.67;1.57;;;16.00;99.90;;;;;;5045685;28;20208;-59
2022/09/09 00:35:46;;;;;;;3.45;1.65;;;16.10;99.90;;;;;;5032320;28;20208;-59
2022/09/09 00:38:31;;;;;;;1.75;1.55;;;16.10;99.90;;;;;;5048261;28;20185;-60
2022/09/09 00:41:31;;;;;;;1.63;1.10;;;15.80;99.90;;;;;;5047836;28;20631;-59
2022/09/09 00:44:13;;;;;;;1.80;1.67;;;15.80;99.90;;;;;;5049229;28;20378;-59
2022/09/09 00:46:49;;;;;;;1.65;1.52;;;16.00;99.90;;;;;;5047138;28;20196;-60
2022/09/09 00:49:44;;;;;;;2.28;1.60;;;16.10;99.90;;;;;;5048379;28;20218;-60
2022/09/09 00:52:12;;;;;;;2.30;1.58;;;16.10;99.90;;;;;;5039364;28;20189;-60
2022/09/09 00:54:51;;;;;;;2.10;1.90;;;16.10;99.90;;;;;;5043601;28;20269;-59
2022/09/09 00:57:34;;;;;;;1.67;1.58;;;16.20;99.90;;;;;;5048737;28;20215;-59
2022/09/09 01:00:21;;;;;;;2.50;1.55;;;16.00;99.90;;;;;;5047740;28;20217;-60
2022/09/09 01:03:02;;;;;;;3.88;1.52;;;16.20;99.90;;;;;;5041260;28;20654;-59
2022/09/09 01:05:44;;;;;;;1.42;1.33;;;16.20;99.90;;;;;;5045092;28;20272;-59
2022/09/09 01:08:27;;;;;;;3.53;1.38;;;16.10;99.90;;;;;;5043972;28;20182;-60
2022/09/09 01:10:54;;;;;;;1.52;1.40;;;16.40;99.90;;;;;;5048550;28;20209;-60
2022/09/09 01:13:26;;;;;;;3.13;1.50;;;16.50;99.90;;;;;;5049463;28;20185;-60
2022/09/09 01:15:53;;;;;;;4.32;1.83;;;16.60;99.90;;;;;;5049021;28;20169;-59
2022/09/09 01:18:30;;;;;;;1.95;1.40;;;16.40;99.90;;;;;;5043351;28;20553;-60
2022/09/09 01:21:15;;;;;;;2.13;1.52;;;16.40;99.90;;;;;;5045668;28;20216;-59
2022/09/09 01:24:11;;;;;;;2.63;1.30;;;16.50;99.90;;;;;;5048198;28;20177;-59
2022/09/09 01:26:37;;;;;;;4.18;1.42;;;16.60;99.90;;;;;;5046186;28;20272;-59
2022/09/09 01:29:08;;;;;;;2.95;1.45;;;16.60;99.90;;;;;;5049216;28;20184;-59
2022/09/09 01:31:58;;;;;;;1.70;1.23;;;16.80;99.90;;;;;;5047935;28;20702;-60
2022/09/09 01:34:28;;;;;;;3.75;1.60;;;16.70;99.90;;;;;;5049952;28;20213;-59
2022/09/09 01:37:04;;;;;;;3.05;2.13;;;16.80;99.90;;;;;;5052254;28;20185;-60
2022/09/09 01:39:31;;;;;;;3.10;1.52;;;16.50;99.90;;;;;;5051184;28;20398;-59
2022/09/09 01:41:57;;;;;;;5.55;1.70;;;16.50;99.90;;;;;;5052089;28;20193;-60
2022/09/09 01:44:24;;;;;;;2.88;1.60;;;16.40;99.90;;;;;;5053026;28;20190;-61
2022/09/09 01:46:50;;;;;;;3.10;1.60;;;16.40;99.90;;;;;;5051666;28;20189;-60
2022/09/09 01:49:16;;;;;;;2.80;1.90;;;16.60;99.90;;;;;;5051717;28;20542;-60
2022/09/09 01:51:43;;;;;;;1.90;1.40;;;16.70;99.90;;;;;;5052892;28;20678;-60
2022/09/09 01:54:09;;;;;;;4.05;1.48;;;16.60;99.90;;;;;;5051578;28;20525;-60
2022/09/09 01:56:59;;;;;;;2.00;1.85;;;16.60;99.90;;;;;;5052166;28;20193;-60
2022/09/09 01:59:41;;;;;;;1.75;1.40;;;16.70;99.90;;;;;;5052142;28;20674;-60
2022/09/09 02:02:12;;;;;;;2.10;1.20;;;16.50;99.90;;;;;;5045747;28;20200;-60
2022/09/09 02:04:40;;;;;;;2.50;1.50;;;16.50;99.90;;;;;;5047469;28;20856;-60
2022/09/09 02:07:22;;;;;;;1.70;1.20;;;16.70;99.90;;;;;;5034667;28;20186;-60
2022/09/09 02:09:56;;;;;;;2.03;1.20;;;16.70;99.90;;;;;;5049998;28;20254;-60
2022/09/09 02:12:25;;;;;;;1.92;1.25;;;16.90;99.90;;;;;;5053240;28;20184;-60
2022/09/09 02:14:58;;;;;;;2.42;1.35;;;16.80;99.90;;;;;;5052431;28;20185;-60
2022/09/09 02:17:33;;;;;;;2.65;1.38;;;16.60;99.90;;;;;;5050965;28;20205;-60
2022/09/09 02:20:12;;;;;;;2.45;1.20;;;16.60;99.90;;;;;;5050108;28;20219;-59
2022/09/09 02:22:42;;;;;;;1.77;1.48;;;16.30;99.90;;;;;;5046984;28;20196;-60
2022/09/09 02:25:10;;;;;;;2.20;1.50;;;16.30;99.90;;;;;;5033715;28;20248;-60
2022/09/09 02:27:36;;;;;;;3.05;1.80;;;16.30;99.90;;;;;;5044524;28;20524;-60
2022/09/09 02:30:04;;;;;;;2.33;1.30;;;16.10;99.90;;;;;;5044063;28;20213;-60
2022/09/09 02:32:32;;;;;;;2.45;1.55;;;16.20;99.90;;;;;;5030627;28;20463;-60
2022/09/09 02:35:07;;;;;;;2.55;1.58;;;16.30;99.90;;;;;;5049309;28;20192;-61
2022/09/09 02:37:37;;;;;;;2.00;1.10;;;16.10;99.90;;;;;;5045244;28;20177;-60
2022/09/09 02:40:05;;;;;;;1.52;1.40;;;16.20;99.90;;;;;;5046590;28;20213;-60
2022/09/09 02:42:31;;;;;;;1.88;1.20;;;15.90;99.90;;;;;;5034136;28;20193;-60
2022/09/09 02:44:57;;;;;;;4.57;1.70;;;16.10;99.90;;;;;;5051372;28;20189;-61
2022/09/09 02:47:29;;;;;;;2.20;1.47;;;15.90;99.90;;;;;;5048091;28;20182;-61
2022/09/09 02:50:13;;;;;;;2.08;1.40;;;16.00;99.90;;;;;;5051602;28;20472;-61
2022/09/09 02:52:42;;;;;;;1.75;1.60;;;15.80;99.90;;;;;;5048969;28;20185;-60
2022/09/09 02:55:18;;;;;;;6.15;1.83;;;15.80;99.90;;;;;;5048807;28;20337;-60
2022/09/09 02:57:47;;;;;;;1.50;1.10;;;15.70;99.90;;;;;;5042274;28;20193;-60
2022/09/09 03:00:13;;;;;;;2.30;1.35;;;15.70;99.90;;;;;;5050894;28;20209;-60
2022/09/09 03:02:38;;;;;;;4.07;1.70;;;15.90;99.90;;;;;;5048205;28;20182;-60
2022/09/09 03:05:05;;;;;;;3.20;1.40;;;15.80;99.90;;;;;;5051797;28;20421;-60
2022/09/09 03:07:31;;;;;;;2.65;1.52;;;15.90;99.90;;;;;;5048798;28;20177;-60
2022/09/09 03:09:58;;;;;;;1.90;1.40;;;15.90;99.90;;;;;;5049303;28;20236;-60
2022/09/09 03:12:23;;;;;;;2.65;1.40;;;15.80;99.90;;;;;;5045474;28;20197;-60
2022/09/09 03:14:49;;;;;;;2.30;1.60;;;15.70;99.90;;;;;;5051500;28;20193;-60
2022/09/09 03:17:15;;;;;;;4.15;1.48;;;16.00;99.90;;;;;;5047472;28;20178;-60
2022/09/09 03:19:41;;;;;;;1.77;1.60;;;15.80;99.90;;;;;;5051147;28;20209;-60
2022/09/09 03:22:09;;;;;;;2.73;1.70;;;15.90;99.90;;;;;;5047229;28;20185;-60
2022/09/09 03:24:35;;;;;;;3.50;1.35;;;15.90;99.90;;;;;;5050238;28;20209;-60
2022/09/09 03:27:01;;;;;;;4.43;1.63;;;15.80;99.90;;;;;;5051205;28;20274;-60
2022/09/09 03:29:26;;;;;;;1.60;1.20;;;15.80;99.90;;;;;;5048537;28;20610;-59
2022/09/09 03:31:52;;;;;;;2.00;1.60;;;15.90;99.90;;;;;;5049399;28;20294;-60
2022/09/09 03:34:17;;;;;;;1.63;1.40;;;15.90;99.90;;;;;;5048053;28;20194;-60
2022/09/09 03:36:43;;;;;;;1.47;1.37;;;15.40;99.90;;;;;;5030601;28;20204;-60
2022/09/09 03:39:08;;;;;;;1.80;1.47;;;15.70;99.90;;;;;;5048664;28;20205;-60
2022/09/09 03:41:34;;;;;;;1.90;1.10;;;15.60;99.90;;;;;;5036979;28;20292;-60
2022/09/09 03:44:00;;;;;;;2.87;1.50;;;15.70;99.90;;;;;;5051227;28;20627;-60
2022/09/09 03:46:25;;;;;;;2.33;1.60;;;15.50;99.90;;;;;;5049850;28;20190;-60
2022/09/09 03:48:54;;;;;;;1.90;1.70;;;15.50;99.90;;;;;;5044089;28;20221;-60
2022/09/09 03:51:21;;;;;;;2.78;1.55;;;15.80;99.90;;;;;;5048240;28;20482;-60
2022/09/09 03:53:47;;;;;;;1.95;1.63;;;15.80;99.90;;;;;;5050774;28;20184;-60
2022/09/09 03:56:14;;;;;;;1.60;1.45;;;15.70;99.90;;;;;;5046244;28;20193;-61
2022/09/09 03:58:40;;;;;;;3.33;1.58;;;15.50;99.90;;;;;;5049784;28;20534;-60
2022/09/09 04:01:09;;;;;;;1.92;1.45;;;15.60;99.90;;;;;;5031864;28;20564;-60
2022/09/09 04:03:35;;;;;;;2.08;1.40;;;15.70;99.90;;;;;;5044076;28;20188;-60
2022/09/09 04:06:04;;;;;;;2.23;1.30;;;15.80;99.90;;;;;;5050808;28;20177;-60
2022/09/09 04:08:33;;;;;;;3.67;1.70;;;15.70;99.90;;;;;;5050044;28;20503;-60
2022/09/09 04:11:02;;;;;;;2.22;1.50;;;15.80;99.90;;;;;;5039346;28;20240;-59
2022/09/09 04:13:27;;;;;;;2.88;1.50;;;15.90;99.90;;;;;;5047609;28;20178;-59
2022/09/09 04:15:55;;;;;;;1.70;1.13;;;15.70;99.90;;;;;;5050532;28;20230;-59
2022/09/09 04:18:22;;;;;;;2.22;1.55;;;15.80;99.90;;;;;;5046225;28;20443;-60
2022/09/09 04:20:49;;;;;;;4.55;1.63;;;15.90;99.90;;;;;;5039812;28;20292;-60
2022/09/09 04:23:15;;;;;;;1.48;1.00;;;16.00;99.90;;;;;;5050002;28;20182;-60
2022/09/09 04:25:46;;;;;;;1.50;1.40;;;16.20;99.90;;;;;;5048354;28;20190;-60
2022/09/09 04:28:13;;;;;;;2.35;2.15;;;16.20;99.90;;;;;;5049504;28;20431;-59
2022/09/09 04:30:39;;;;;;;3.17;1.30;;;16.20;99.90;;;;;;5049366;28;20217;-59
2022/09/09 04:33:06;;;;;;;3.08;1.27;;;16.50;99.90;;;;;;5045605;28;20212;-60
2022/09/09 04:35:32;;;;;;;3.53;1.40;;;16.40;99.90;;;;;;5048536;28;20185;-60
2022/09/09 04:37:57;;;;;;;3.07;2.63;;;16.60;99.90;;;;;;5046313;28;20173;-60
2022/09/09 04:40:23;;;;;;;2.40;1.60;;;16.50;99.90;;;;;;5039731;28;20346;-59
2022/09/09 04:42:50;;;;;;;2.13;1.50;;;16.70;99.90;;;;;;5044045;28;20177;-60
2022/09/09 04:45:15;;;;;;;1.40;1.30;;;16.90;99.90;;;;;;5047937;28;20178;-60
2022/09/09 04:47:42;;;;;;;2.10;1.67;;;16.90;99.90;;;;;;5027405;28;20591;-60
2022/09/09 04:50:08;;;;;;;2.10;1.58;;;16.90;99.90;;;;;;5049591;28;20250;-60
2022/09/09 04:52:36;;;;;;;3.53;1.40;;;16.80;99.90;;;;;;5047649;28;20268;-60
2022/09/09 04:55:03;;;;;;;1.55;1.45;;;16.60;99.90;;;;;;5045092;28;20455;-60
2022/09/09 04:57:31;;;;;;;1.77;1.48;;;16.80;99.90;;;;;;5043737;28;20197;-60
2022/09/09 04:59:57;;;;;;;2.05;1.25;;;16.90;99.90;;;;;;5048049;28;20213;-59
2022/09/09 05:02:22;;;;;;;3.10;1.60;;;16.60;99.90;;;;;;5047683;28;20190;-60
2022/09/09 05:04:49;;;;;;;5.30;1.87;;;16.60;99.90;;;;;;5045079;28;20994;-59
2022/09/09 05:07:15;;;;;;;1.95;1.75;;;16.60;99.90;;;;;;5027353;28;20604;-60
2022/09/09 05:09:40;;;;;;;2.07;1.87;;;16.30;99.90;;;;;;5042996;28;20185;-59
2022/09/09 05:12:06;;;;;;;2.70;1.90;;;16.30;99.90;;;;;;5047359;28;20193;-59
2022/09/09 05:14:32;;;;;;;4.60;2.23;;;16.40;99.90;;;;;;5047621;28;20282;-60
2022/09/09 05:16:58;;;;;;;2.97;1.60;;;16.40;99.90;;;;;;5049973;28;20451;-60
2022/09/09 05:19:23;;;;;;;5.10;1.97;;;16.30;99.90;;;;;;5045062;28;20274;-60
2022/09/09 05:21:49;;;;;;;1.80;1.70;;;16.30;99.90;;;;;;5043675;28;20228;-60
2022/09/09 05:24:16;;;;;;;2.63;1.60;;;16.20;99.90;;;;;;5047527;28;20627;-60
2022/09/09 05:26:43;;;;;;;2.35;1.73;;;16.50;99.90;;;;;;5048856;28;20543;-60
2022/09/09 05:29:09;;;;;;;3.42;2.35;;;16.40;99.90;;;;;;5044620;28;20248;-58
2022/09/09 05:31:34;;;;;;;4.07;1.60;;;16.50;99.90;;;;;;5040165;28;20725;-55
2022/09/09 05:34:00;;;;;;;3.47;2.27;;;16.70;99.90;;;;;;5044860;28;20208;-56
2022/09/09 05:36:25;;;;;;;2.40;1.83;;;16.60;99.90;;;;;;5045558;28;20296;-55
2022/09/09 05:38:53;;;;;;;2.20;1.70;;;16.60;99.90;;;;;;5048423;28;20244;-56
2022/09/09 05:41:19;;;;;;;1.75;1.52;;;16.70;99.90;;;;;;5047159;28;20193;-57
2022/09/09 05:43:47;;;;;;;2.95;2.03;;;16.80;99.90;;;;;;5049485;28;20514;-56
2022/09/09 05:46:18;;;;;;;3.60;2.00;;;16.90;99.90;;;;;;5049119;28;20210;-56
2022/09/09 05:48:46;;;;;;;3.05;2.20;;;17.00;99.90;;;;;;5028372;28;20244;-56
2022/09/09 05:51:15;;;;;;;1.83;1.70;;;17.00;99.90;;;;;;5048030;28;20606;-54
2022/09/09 05:53:42;;;;;;;2.33;1.83;;;17.10;99.90;;;;;;5044829;28;20215;-54
2022/09/09 05:56:14;;;;;;;2.70;1.50;;;17.10;99.90;;;;;;5046346;28;20182;-55
2022/09/09 05:58:41;;;;;;;2.75;1.75;;;17.30;99.90;;;;;;5042129;28;20208;-54
2022/09/09 06:01:28;;;;;;;2.45;2.20;;;17.30;99.90;;;;;;5047538;28;20327;-55
2022/09/09 06:03:54;;;;;;;3.83;1.95;;;17.50;99.90;;;;;;5045865;28;20185;-56
2022/09/09 06:06:36;;;;;;;1.85;1.60;;;17.60;99.90;;;;;;5042305;28;20205;-58
2022/09/09 06:09:09;;;;;;;4.63;2.30;;;17.30;99.90;;;;;;5040412;28;20217;-56
2022/09/09 06:11:37;;;;;;;4.28;2.00;;;17.80;99.90;;;;;;5043434;28;20286;-56
2022/09/09 06:14:03;;;;;;;1.70;1.60;;;17.80;99.90;;;;;;5020962;28;20643;-56
2022/09/09 06:16:32;;;;;;;4.07;1.70;;;17.90;99.90;;;;;;5040283;28;20682;-56
2022/09/09 06:18:58;;;;;;;2.17;1.70;;;18.00;99.90;;;;;;5030871;28;20295;-56
2022/09/09 06:21:26;;;;;;;2.97;2.00;;;18.00;99.90;;;;;;5050660;28;20202;-56
2022/09/09 06:23:52;;;;;;;1.55;1.33;;;18.10;99.90;;;;;;5031532;28;20618;-56
2022/09/09 06:26:25;;;;;;;4.00;2.35;;;18.10;99.90;;;;;;5052194;28;20181;-55
2022/09/09 06:28:52;;;;;;;3.00;2.10;;;18.20;99.90;;;;;;5048875;28;20193;-55
2022/09/09 06:31:24;;;;;;;2.35;1.45;;;18.00;99.90;;;;;;5047816;28;20204;-54
2022/09/09 06:33:51;;;;;;;2.35;2.13;;;18.20;99.90;;;;;;5046739;28;20197;-55
2022/09/09 06:36:18;;;;;;;4.63;2.50;;;18.20;99.90;;;;;;5045342;28;20207;-55
2022/09/09 06:38:44;;;;;;;2.75;1.90;;;18.20;99.90;;;;;;5048197;28;20304;-54
2022/09/09 06:41:12;;;;;;;2.63;1.65;;;18.30;99.90;;;;;;5042636;28;20233;-55
2022/09/09 06:43:38;;;;;;;2.75;2.20;;;18.70;99.90;;;;;;5045386;28;20185;-56
2022/09/09 06:46:05;;;;;;;2.50;1.73;;;18.70;99.90;;;;;;5049818;28;20265;-54
2022/09/09 06:48:32;;;;;;;2.05;1.70;;;18.60;99.90;;;;;;5049190;28;20662;-56
2022/09/09 06:51:11;;;;;;;2.08;1.80;;;18.70;99.90;;;;;;5050950;28;20300;-56
2022/09/09 06:53:38;;;;;;;3.50;2.20;;;18.70;99.90;;;;;;5047444;28;20209;-56
2022/09/09 06:56:09;;;;;;;3.95;1.50;;;18.80;99.90;;;;;;5044079;28;20726;-56
2022/09/09 06:58:36;;;;;;;3.03;2.10;;;19.10;99.90;;;;;;5044746;28;20205;-57
2022/09/09 07:01:06;;;;;;;3.13;1.58;;;18.90;99.90;;;;;;5026395;28;20195;-55
2022/09/09 07:03:33;;;;;;;2.42;1.50;;;19.10;99.70;;;;;;5048397;28;20306;-56
2022/09/09 07:05:59;;;;;;;2.65;1.55;;;19.10;99.40;;;;;;5048832;28;20811;-57
2022/09/09 07:08:25;;;;;;;3.87;2.10;;;19.20;99.30;;;;;;5047364;28;20213;-56
2022/09/09 07:10:53;;;;;;;2.20;1.40;;;19.20;99.40;;;;;;5046739;28;20471;-59
2022/09/09 07:13:25;;;;;;;2.85;1.63;;;19.40;99.00;;;;;;5040479;28;20975;-60
2022/09/09 07:15:51;;;;;;;2.10;1.90;;;19.60;99.00;;;;;;5043662;28;20635;-62
2022/09/09 07:18:17;;;;;;;1.98;1.45;;;19.60;98.70;;;;;;5046976;28;20677;-62
2022/09/09 07:20:43;;;;;;;2.50;1.30;;;19.50;98.70;;;;;;5043046;28;20221;-62
2022/09/09 07:23:08;;;;;;;2.27;1.30;;;19.70;98.30;;;;;;5045827;28;20549;-60
2022/09/09 07:25:34;;;;;;;2.60;1.20;;;20.00;97.70;;;;;;5044215;28;20190;-63
2022/09/09 07:28:00;;;;;;;3.87;1.70;;;20.30;97.60;;;;;;5049821;28;20524;-59
2022/09/09 07:30:25;;;;;;;3.13;1.53;;;20.50;96.80;;;;;;5023515;28;20314;-59
2022/09/09 07:32:51;;;;;;;2.13;1.53;;;21.10;96.30;;;;;;5042328;28;20277;-59
2022/09/09 07:35:17;;;;;;;2.20;1.30;;;22.40;94.20;;;;;;5047468;28;20200;-61
2022/09/09 07:37:44;;;;;;;2.53;1.47;;;23.10;92.30;;;;;;5030090;28;20451;-59
2022/09/09 07:40:10;;;;;;;2.50;1.57;;;23.40;91.10;;;;;;5040851;28;20239;-58
2022/09/09 07:42:37;;;;;;;1.97;1.50;;;23.80;91.00;;;;;;5042903;28;20506;-58
2022/09/09 07:45:03;;;;;;;1.30;1.20;;;24.50;89.90;;;;;;5048136;28;20273;-58
2022/09/09 07:47:29;;;;;;;2.87;1.70;;;25.60;85.50;;;;;;5046235;28;20448;-55
2022/09/09 07:49:55;;;;;;;2.00;1.30;;;27.10;80.00;;;;;;5036588;28;20520;-57
2022/09/09 07:52:21;;;;;;;3.53;1.50;;;27.80;74.30;;;;;;5044841;28;20711;-57
2022/09/09 07:54:50;;;;;;;5.00;2.53;;;28.20;72.00;;;;;;5042879;28;20540;-57
2022/09/09 07:57:16;;;;;;;1.23;1.10;;;27.30;72.20;;;;;;5050081;28;20638;-56
2022/09/09 07:59:42;;;;;;;2.80;1.20;;;27.50;73.60;;;;;;5050238;28;20463;-56
2022/09/09 08:02:09;;;;;;;2.10;1.20;;;28.90;69.20;;;;;;5044140;28;20197;-56
2022/09/09 08:04:34;;;;;;;2.20;1.10;;;29.70;66.10;;;;;;5046841;28;20232;-56
2022/09/09 08:07:01;;;;;;;1.87;1.10;;;30.70;63.10;;;;;;5042397;28;20439;-57
2022/09/09 08:09:32;;;;;;;6.07;1.60;;;31.60;59.00;;;;;;5045421;28;20197;-57
2022/09/09 08:11:58;;;;;;;3.03;1.67;;;31.50;57.30;;;;;;5042236;28;20435;-56
2022/09/09 08:14:23;;;;;;;1.97;1.13;;;32.20;56.00;;;;;;5050161;28;20432;-56
2022/09/09 08:16:50;;;;;;;2.07;1.10;;;31.50;55.10;;;;;;5029597;28;20516;-56
2022/09/09 08:19:16;;;;;;;4.17;2.10;;;32.40;54.40;;;;;;5045579;28;20214;-56
2022/09/09 08:21:43;;;;;;;1.93;1.00;;;32.70;53.20;;;;;;5020996;28;21044;-56
2022/09/09 08:24:10;;;;;;;3.90;1.50;;;32.40;53.50;;;;;;5039162;28;20439;-57
2022/09/09 08:26:38;;;;;;;1.87;1.07;;;32.90;52.90;;;;;;5049555;28;20959;-55
2022/09/09 08:29:06;;;;;;;1.83;1.50;;;33.60;51.40;;;;;;5042724;28;20560;-57
2022/09/09 08:31:40;;;;;;;1.90;1.40;;;33.60;50.30;;;;;;5044791;28;20465;-56
2022/09/09 08:34:07;;;;;;;1.17;1.07;;;33.10;50.20;;;;;;5048820;28;20477;-55
2022/09/09 08:36:35;;;;;;;3.60;1.30;;;32.80;50.80;;;;;;5040784;28;20949;-57
2022/09/09 08:39:02;;;;;;;2.17;1.73;;;32.00;51.40;;;;;;5042106;28;20466;-56
2022/09/09 08:41:49;;;;;;;1.40;1.30;;;31.40;52.70;;;;;;5046525;28;20854;-55
2022/09/09 08:44:28;;;;;;;2.67;1.73;;;30.70;54.30;;;;;;5047907;28;20473;-55
2022/09/09 08:47:06;;;;;;;2.07;1.30;;;30.00;54.30;;;;;;5049809;28;21457;-56
2022/09/09 08:49:54;;;;;;;1.43;1.33;;;28.60;57.20;;;;;;5027496;28;20444;-55
2022/09/09 08:52:25;;;;;;;2.97;1.50;;;27.40;59.60;;;;;;5026097;28;20447;-56
2022/09/09 08:54:51;;;;;;;2.30;1.43;;;26.40;63.80;;;;;;5046204;28;20489;-56
2022/09/09 08:57:26;;;;;;;3.73;1.13;;;25.80;64.90;;;;;;5047787;28;20454;-54
2022/09/09 08:59:55;;;;;;;2.17;1.20;;;25.20;66.20;;;;;;5039973;28;20508;-54
2022/09/09 09:02:49;;;;;;;2.43;1.13;;;24.70;69.20;;;;;;5047451;28;20543;-55
2022/09/09 09:05:33;;;;;;;1.70;1.20;;;24.30;70.40;;;;;;5024787;28;20448;-62
2022/09/09 09:08:20;;;;;;;3.00;1.80;;;23.80;72.40;;;;;;5044567;28;20458;-61
2022/09/09 09:10:53;;;;;;;2.80;1.60;;;23.60;72.00;;;;;;5048207;28;20472;-59
2022/09/09 09:13:43;;;;;;;1.10;1.00;;;23.30;72.20;;;;;;5047118;28;20794;-63
2022/09/09 09:16:26;;;;;;;3.33;1.30;;;23.10;73.50;;;;;;5038438;28;20460;-63
2022/09/09 09:18:52;;;;;;;4.10;1.33;;;23.00;73.50;;;;;;5041230;28;20486;-63
2022/09/09 09:21:41;;;;;;;2.67;1.27;;;23.00;75.10;;;;;;5045701;28;20464;-60
2022/09/09 09:24:35;;;;;;;2.50;1.43;;;23.00;76.70;;;;;;5042848;28;20448;-60
2022/09/09 09:27:28;;;;;;;6.03;2.37;;;22.90;80.80;;;;;;5012138;28;20452;-59
2022/09/09 09:29:58;;;;;;;1.90;1.13;;;22.70;83.40;;;;;;5021811;28;20462;-60
2022/09/09 09:32:30;;;;;;;2.57;1.00;;;22.50;84.40;;;;;;5044092;28;21150;-61
2022/09/09 09:34:58;;;;;;;1.60;1.10;;;22.10;84.70;;;;;;5045149;28;20436;-61
2022/09/09 09:37:37;;;;;;;1.00;0.73;;;21.70;90.30;;;;;;5044240;28;20450;-59
2022/09/09 09:40:18;;;;;;;1.40;1.00;;;21.30;88.90;;;;;;5034915;28;20475;-59
2022/09/09 09:42:52;;;;;;;2.13;1.15;;;21.20;89.70;;;;;;5040396;28;20189;-60
2022/09/09 09:45:44;;;;;;;3.30;0.98;;;21.50;91.10;;;;;;5038373;28;20229;-59
2022/09/09 09:48:12;;;;;;;2.00;1.50;;;21.90;90.50;;;;;;5013882;28;20276;-57
2022/09/09 09:50:50;;;;;;;2.47;2.28;;;22.00;89.60;;;;;;5016371;28;20476;-51
2022/09/09 09:53:21;;;;;;;1.67;1.20;;;21.90;91.80;;;;;;5047858;28;20226;-53
2022/09/09 09:55:54;;;;;;;2.80;1.33;;;21.80;91.70;;;;;;5047281;28;20555;-54
2022/09/09 09:58:19;;;;;;;1.40;0.97;;;21.80;92.30;;;;;;5050879;28;20451;-54
2022/09/09 10:00:50;;;;;;;1.17;0.77;;;21.90;91.80;;;;;;5051283;28;20524;-53
2022/09/09 10:03:31;;;;;;;1.10;0.97;;;21.90;91.10;;;;;;5042808;28;20664;-55
2022/09/09 10:05:57;;;;;;;1.10;0.97;;;22.00;88.50;;;;;;5044231;28;20941;-52
2022/09/09 10:08:26;;;;;;;1.00;0.87;;;22.10;89.10;;;;;;5048490;28;21240;-53
2022/09/09 10:11:07;;;;;;;1.33;1.23;;;22.10;88.50;;;;;;5048727;28;20459;-53
2022/09/09 10:13:55;;;;;;;2.43;1.27;;;22.30;89.20;;;;;;5047465;28;20522;-53
2022/09/09 10:17:00;;;;;;;2.57;1.17;;;22.40;88.60;;;;;;5046085;28;20814;-53
2022/09/09 10:19:32;;;;;;;4.20;1.50;;;22.50;89.50;;;;;;5049728;28;20852;-53
2022/09/09 10:22:14;;;;;;;2.07;1.30;;;22.60;90.60;;;;;;5044257;28;20439;-53
2022/09/09 10:24:57;;;;;;;1.30;1.20;;;22.60;88.50;;;;;;5049638;28;20493;-54
2022/09/09 10:28:02;;;;;;;4.60;2.10;;;22.60;87.90;;;;;;5045719;28;20439;-53
2022/09/09 10:30:39;;;;;;;1.73;1.40;;;22.80;88.90;;;;;;5046721;28;20991;-53
2022/09/09 10:33:23;;;;;;;2.73;1.57;;;23.00;89.70;;;;;;5043493;28;20443;-54
2022/09/09 10:36:12;;;;;;;1.97;1.30;;;23.00;88.90;;;;;;5048566;28;20459;-54
2022/09/09 10:38:37;;;;;;;1.30;1.17;;;23.20;90.00;;;;;;5044023;28;20447;-53
2022/09/09 10:41:27;;;;;;;3.90;1.50;;;23.30;87.40;;;;;;5049169;28;20474;-53
2022/09/09 10:44:13;;;;;;;5.67;1.10;;;23.40;87.50;;;;;;5039371;28;20201;-53
2022/09/09 10:46:54;;;;;;;1.60;1.50;;;23.30;87.50;;;;;;5040225;28;20475;-53
2022/09/09 10:50:01;;;;;;;2.07;1.30;;;23.10;88.70;;;;;;5040492;28;20488;-53
2022/09/09 10:52:49;;;;;;;2.90;1.33;;;22.90;89.00;;;;;;5044249;28;20548;-53
2022/09/09 10:55:19;;;;;;;3.47;1.47;;;22.80;90.40;;;;;;5043945;28;20440;-53
2022/09/09 10:57:49;;;;;;;2.63;1.40;;;22.80;90.30;;;;;;5049970;28;20451;-54
2022/09/09 11:00:26;;;;;;;2.00;1.80;;;22.90;90.20;;;;;;5049865;28;20838;-53
2022/09/09 11:02:59;;;;;;;2.57;1.43;;;23.10;90.30;;;;;;5048335;28;20443;-54
2022/09/09 11:05:49;;;;;;;2.30;1.60;;;23.40;88.60;;;;;;5044685;28;20442;-54
2022/09/09 11:08:29;;;;;;;3.50;1.57;;;23.40;87.70;;;;;;5047079;28;20439;-53
2022/09/09 11:11:11;;;;;;;2.83;1.47;;;23.20;87.70;;;;;;5048864;28;20528;-54
2022/09/09 11:13:51;;;;;;;2.67;1.20;;;23.30;87.90;;;;;;5047187;28;20432;-54
2022/09/09 11:16:35;;;;;;;2.47;1.53;;;23.40;86.10;;;;;;5042618;28;21074;-52
2022/09/09 11:19:09;;;;;;;2.37;1.30;;;23.50;85.90;;;;;;5048431;28;20586;-55
2022/09/09 11:21:41;;;;;;;1.60;1.20;;;23.80;83.60;;;;;;5048225;28;21038;-53
2022/09/09 11:24:14;;;;;;;2.00;1.30;;;23.80;78.80;;;;;;5044431;28;20443;-54
2022/09/09 11:26:50;;;;;;;3.43;1.23;;;23.70;78.30;;;;;;5046134;28;20522;-54
2022/09/09 11:29:47;;;;;;;1.93;1.40;;;23.20;75.40;;;;;;5043339;28;20435;-53
2022/09/09 11:32:36;;;;;;;1.83;0.93;;;23.00;75.20;;;;;;5049465;28;20432;-54
2022/09/09 11:35:26;;;;;;;2.13;1.00;;;22.60;75.70;;;;;;5044912;28;20439;-54
2022/09/09 11:38:14;;;;;;;3.63;1.10;;;22.50;76.20;;;;;;5048829;28;20565;-53
2022/09/09 11:40:40;;;;;;;2.07;1.20;;;22.20;77.40;;;;;;5038080;28;20530;-53
2022/09/09 11:43:31;;;;;;;3.00;1.23;;;22.10;79.80;;;;;;5049364;28;20972;-53
2022/09/09 11:46:00;;;;;;;1.23;0.97;;;22.00;80.60;;;;;;5047891;28;20257;-52
2022/09/09 11:48:38;;;;;;;1.47;0.80;;;21.80;80.70;;;;;;5047738;28;20513;-52
2022/09/09 11:51:09;;;;;;;1.07;0.97;;;21.60;81.30;;;;;;5043540;28;20469;-52
2022/09/09 11:53:48;;;;;;;1.47;0.60;;;21.70;81.80;;;;;;5042864;28;20437;-52
2022/09/09 11:56:28;;;;;;;1.20;1.10;;;21.40;81.80;;;;;;5048474;28;20839;-52
2022/09/09 11:59:07;;;;;;;1.63;0.87;;;21.40;83.60;;;;;;5045265;28;20455;-53
2022/09/09 12:01:42;;;;;;;1.40;0.73;;;21.60;82.60;;;;;;5014207;28;20530;-52
2022/09/09 12:04:34;;;;;;;1.83;0.90;;;21.30;80.60;;;;;;5031877;28;20469;-53
2022/09/09 12:07:07;;;;;;;1.87;1.00;;;21.40;81.40;;;;;;5049545;28;20565;-53
2022/09/09 12:10:07;;;;;;;2.90;1.33;;;22.00;80.10;;;;;;5045260;28;20543;-54
2022/09/09 12:12:38;;;;;;;2.03;0.80;;;21.90;79.10;;;;;;5046443;28;20454;-54
2022/09/09 12:15:07;;;;;;;2.20;1.27;;;21.80;79.90;;;;;;5041935;28;20944;-53
2022/09/09 12:17:43;;;;;;;1.97;1.03;;;21.80;79.70;;;;;;5039740;28;20498;-53
2022/09/09 12:20:14;;;;;;;1.00;0.60;;;21.90;80.50;;;;;;5043610;28;20554;-53
2022/09/09 12:23:01;;;;;;;1.13;0.83;;;22.00;80.00;;;;;;5045979;28;20455;-54
2022/09/09 12:25:46;;;;;;;1.57;0.87;;;22.30;79.70;;;;;;5034756;28;20754;-54
2022/09/09 12:28:40;;;;;;;1.83;1.63;;;22.40;76.90;;;;;;5042114;28;20557;-53
2022/09/09 12:31:17;;;;;;;2.33;1.00;;;22.50;76.80;;;;;;5035801;28;20460;-54
2022/09/09 12:33:47;;;;;;;1.60;0.80;;;22.70;76.40;;;;;;5046728;28;20431;-54
2022/09/09 12:36:16;;;;;;;3.43;0.73;;;22.70;72.40;;;;;;5044696;28;20446;-53
2022/09/09 12:38:44;;;;;;;2.20;0.80;;;22.80;72.70;;;;;;5045155;28;21208;-53
2022/09/09 12:41:26;;;;;;;2.20;0.60;;;22.80;70.80;;;;;;5035621;28;20514;-52
2022/09/09 12:44:07;;;;;;;3.27;0.83;;;22.80;71.70;;;;;;5042447;28;20440;-52
2022/09/09 12:46:38;;;;;;;3.37;1.00;;;22.60;71.20;;;;;;5047551;28;20807;-53
2022/09/09 12:49:04;;;;;;;1.73;0.70;;;22.30;73.10;;;;;;5046090;28;20803;-52
2022/09/09 12:51:33;;;;;;;2.37;1.30;;;22.30;74.00;;;;;;5046520;28;20583;-52
2022/09/09 12:53:59;;;;;;;1.10;0.60;;;22.40;74.90;;;;;;5044183;28;20508;-53
2022/09/09 12:56:32;;;;;;;1.53;1.10;;;22.50;75.50;;;;;;5044773;28;20440;-51
2022/09/09 12:58:58;;;;;;;2.60;0.80;;;22.50;76.40;;;;;;5040373;28;20452;-51
2022/09/09 13:01:26;;;;;;;2.63;0.80;;;23.30;76.20;;;;;;5041846;28;20457;-52
2022/09/09 13:03:53;;;;;;;1.53;0.80;;;22.70;74.70;;;;;;5046305;28;20505;-51
2022/09/09 13:06:29;;;;;;;2.40;1.00;;;22.70;75.70;;;;;;5045513;28;20451;-52
2022/09/09 13:08:58;;;;;;;2.60;1.00;;;22.60;75.30;;;;;;5051879;28;20936;-52
2022/09/09 13:11:30;;;;;;;1.77;1.10;;;22.50;75.80;;;;;;5044567;28;20809;-52
2022/09/09 13:13:58;;;;;;;2.40;0.90;;;22.50;77.10;;;;;;5042709;28;20826;-52
2022/09/09 13:16:32;;;;;;;1.47;0.80;;;22.60;76.50;;;;;;5047235;28;20455;-50